Time;durP1;ratioP1;P1;durP2;ratioP2;P2;SDS_P1;SDS_P2;PMS_P1;PMS_P2;Temp;Humidity;BMP_temperature;BMP_pressure;BME280_temperature;BME280_humidity;BME280_pressure;Samples;Min_cycle;Max_cycle;Signal;HPM_P1;HPM_P2
2022/06/25 00:00:37;;;;;;;3.33;1.00;;;19.00;99.90;;;;;;4131943;28;20170;-86
2022/06/25 00:02:37;;;;;;;2.80;1.23;;;19.00;99.90;;;;;;4148254;28;20177;-85
2022/06/25 00:06:57;;;;;;;3.10;1.40;;;19.00;99.90;;;;;;4166185;28;20183;-85
2022/06/25 00:08:58;;;;;;;5.32;1.27;;;18.90;99.90;;;;;;4148315;28;20188;-85
2022/06/25 00:10:59;;;;;;;3.05;1.40;;;19.00;99.90;;;;;;4132013;28;20182;-85
2022/06/25 00:12:59;;;;;;;6.07;1.27;;;18.90;99.90;;;;;;4131970;28;20253;-85
2022/06/25 00:15:06;;;;;;;4.30;1.17;;;18.90;99.90;;;;;;4148131;28;20168;-85
2022/06/25 00:17:07;;;;;;;3.33;1.30;;;18.90;99.90;;;;;;4132007;28;20240;-85
2022/06/25 00:19:08;;;;;;;2.25;1.13;;;18.90;99.90;;;;;;4147583;28;20566;-84
2022/06/25 00:21:08;;;;;;;2.53;1.17;;;18.80;99.90;;;;;;4147847;28;20190;-85
2022/06/25 00:23:09;;;;;;;3.00;1.20;;;18.80;99.90;;;;;;4148158;28;20173;-84
2022/06/25 00:25:10;;;;;;;3.65;1.33;;;18.80;99.90;;;;;;4147804;28;20267;-85
2022/06/25 00:27:10;;;;;;;3.00;1.13;;;18.80;99.90;;;;;;4147938;28;20175;-85
2022/06/25 00:29:11;;;;;;;1.58;1.10;;;18.80;99.90;;;;;;4147677;28;20193;-85
2022/06/25 00:31:12;;;;;;;4.28;1.27;;;18.60;99.90;;;;;;4131542;28;20170;-85
2022/06/25 00:33:12;;;;;;;6.60;1.25;;;18.70;99.90;;;;;;4147878;28;20173;-86
2022/06/25 00:35:13;;;;;;;2.67;1.30;;;18.70;99.90;;;;;;4131418;28;20178;-85
2022/06/25 00:37:15;;;;;;;4.20;1.50;;;18.70;99.90;;;;;;4131512;28;20213;-84
2022/06/25 00:39:16;;;;;;;9.20;1.30;;;18.60;99.90;;;;;;4131365;28;20277;-85
2022/06/25 00:41:17;;;;;;;7.57;1.48;;;18.60;99.90;;;;;;4147735;28;20176;-85
2022/06/25 00:43:19;;;;;;;4.38;1.17;;;18.60;99.90;;;;;;4131482;28;20165;-85
2022/06/25 00:45:19;;;;;;;5.97;1.50;;;18.60;99.90;;;;;;4131563;28;20205;-85
2022/06/25 00:47:20;;;;;;;5.00;1.40;;;18.50;99.90;;;;;;4147875;28;20255;-85
2022/06/25 00:49:21;;;;;;;3.53;1.05;;;18.40;99.90;;;;;;4131395;28;20277;-85
2022/06/25 00:51:26;;;;;;;2.60;1.35;;;18.40;99.90;;;;;;4147302;28;20219;-85
2022/06/25 00:53:32;;;;;;;4.32;1.70;;;18.40;99.90;;;;;;4131299;28;20173;-85
2022/06/25 00:55:38;;;;;;;3.42;1.38;;;18.40;99.90;;;;;;4146559;28;20173;-85
2022/06/25 00:57:42;;;;;;;4.53;1.40;;;18.40;99.90;;;;;;4147142;28;20257;-85
2022/06/25 00:59:47;;;;;;;5.78;1.50;;;18.40;99.90;;;;;;4130986;28;20244;-85
2022/06/25 01:01:47;;;;;;;3.63;1.50;;;18.40;99.90;;;;;;4147253;28;20173;-85
2022/06/25 01:03:48;;;;;;;3.80;1.80;;;18.40;99.90;;;;;;4147483;28;20177;-85
2022/06/25 01:05:50;;;;;;;8.02;2.10;;;18.30;99.90;;;;;;4164906;28;20267;-85
2022/06/25 01:07:51;;;;;;;5.20;1.67;;;18.30;99.90;;;;;;4130979;28;20201;-85
2022/06/25 01:09:52;;;;;;;7.57;1.80;;;18.20;99.90;;;;;;4130987;28;20204;-85
2022/06/25 01:11:53;;;;;;;4.25;1.80;;;18.10;99.90;;;;;;4131279;28;20177;-85
2022/06/25 01:13:54;;;;;;;4.82;1.65;;;18.10;99.90;;;;;;4130971;28;20177;-85
2022/06/25 01:15:55;;;;;;;4.95;1.70;;;18.10;99.90;;;;;;4146964;28;20720;-85
2022/06/25 01:17:56;;;;;;;4.30;1.65;;;18.00;99.90;;;;;;4130753;28;20296;-86
2022/06/25 01:19:59;;;;;;;2.80;1.50;;;18.00;99.90;;;;;;4147147;28;20504;-85
2022/06/25 01:22:03;;;;;;;7.25;1.77;;;18.00;99.90;;;;;;4147430;28;20180;-85
2022/06/25 01:24:05;;;;;;;4.57;1.20;;;17.90;99.90;;;;;;4130861;28;20324;-85
2022/06/25 01:26:06;;;;;;;7.80;2.00;;;17.90;99.90;;;;;;4130817;28;20181;-86
2022/06/25 01:28:08;;;;;;;6.57;1.70;;;17.90;99.90;;;;;;4147271;28;20268;-84
2022/06/25 01:30:11;;;;;;;4.90;1.50;;;18.00;99.90;;;;;;4130792;28;20196;-85
2022/06/25 01:32:12;;;;;;;7.78;2.05;;;18.10;99.90;;;;;;4130955;28;20562;-84
2022/06/25 01:34:13;;;;;;;8.82;1.63;;;18.00;99.90;;;;;;4146838;28;20168;-85
2022/06/25 01:36:14;;;;;;;6.88;1.70;;;17.90;99.90;;;;;;4130505;28;20192;-84
2022/06/25 01:38:14;;;;;;;5.03;1.80;;;17.90;99.90;;;;;;4147113;28;20519;-84
2022/06/25 01:40:15;;;;;;;5.13;1.38;;;17.90;99.90;;;;;;4130598;28;20277;-84
2022/06/25 01:44:36;;;;;;;5.55;1.88;;;18.00;99.90;;;;;;4147280;28;20231;-85
2022/06/25 01:46:37;;;;;;;6.30;1.80;;;17.90;99.90;;;;;;4130709;28;20185;-85
2022/06/25 01:48:37;;;;;;;4.75;1.75;;;18.00;99.90;;;;;;4130517;28;20461;-85
2022/06/25 01:50:38;;;;;;;6.43;2.30;;;18.00;99.90;;;;;;4146722;28;20172;-85
2022/06/25 01:52:40;;;;;;;7.30;2.38;;;17.90;99.90;;;;;;4146796;28;20180;-85
2022/06/25 01:54:41;;;;;;;5.07;1.90;;;17.90;99.90;;;;;;4130555;28;20196;-84
2022/06/25 01:56:41;;;;;;;3.90;1.77;;;17.80;99.90;;;;;;4146787;28;20201;-85
2022/06/25 01:58:42;;;;;;;5.18;1.80;;;17.80;99.90;;;;;;4146988;28;20224;-85
2022/06/25 02:00:44;;;;;;;5.82;2.30;;;17.80;99.90;;;;;;4130226;28;20173;-85
2022/06/25 02:02:46;;;;;;;6.22;2.63;;;17.90;99.90;;;;;;4130654;28;20178;-84
2022/06/25 02:04:47;;;;;;;5.97;2.50;;;17.90;99.90;;;;;;4146748;28;20519;-86
2022/06/25 02:06:48;;;;;;;11.38;2.70;;;17.80;99.90;;;;;;4130260;28;20261;-85
2022/06/25 02:08:48;;;;;;;8.32;2.20;;;17.80;99.90;;;;;;4129885;28;20673;-89
2022/06/25 02:10:52;;;;;;;6.25;3.00;;;17.80;99.90;;;;;;4146693;28;20608;-84
2022/06/25 02:12:53;;;;;;;13.48;2.90;;;17.90;99.90;;;;;;4130165;28;20192;-85
2022/06/25 02:14:54;;;;;;;4.43;2.58;;;18.00;99.90;;;;;;4146563;28;20173;-85
2022/06/25 02:16:55;;;;;;;6.38;2.88;;;17.90;99.90;;;;;;4146314;28;20197;-85
2022/06/25 02:18:56;;;;;;;7.22;2.83;;;18.00;99.90;;;;;;4129776;28;20251;-84
2022/06/25 02:20:59;;;;;;;5.82;2.60;;;17.90;99.90;;;;;;4130292;28;20173;-85
2022/06/25 02:23:00;;;;;;;5.40;2.97;;;17.90;99.90;;;;;;4130203;28;20531;-85
2022/06/25 02:25:00;;;;;;;7.30;2.88;;;18.00;99.90;;;;;;4129849;28;20162;-84
2022/06/25 02:27:01;;;;;;;5.45;2.70;;;18.10;99.90;;;;;;4130198;28;20197;-85
2022/06/25 02:29:05;;;;;;;6.10;2.88;;;18.00;99.90;;;;;;4130299;28;20185;-84
2022/06/25 02:31:06;;;;;;;7.43;2.58;;;18.00;99.90;;;;;;4130320;28;20668;-84
2022/06/25 02:33:11;;;;;;;7.05;2.40;;;18.00;99.90;;;;;;4130113;28;20173;-85
2022/06/25 02:35:12;;;;;;;6.75;2.47;;;18.10;99.90;;;;;;4130203;28;20181;-84
2022/06/25 02:37:13;;;;;;;3.83;1.98;;;18.20;99.90;;;;;;4146428;28;20201;-84
2022/06/25 02:39:13;;;;;;;5.60;2.45;;;18.20;99.90;;;;;;4130219;28;20205;-85
2022/06/25 02:41:14;;;;;;;4.25;2.17;;;18.20;99.90;;;;;;4129987;28;20188;-85
2022/06/25 02:43:16;;;;;;;4.80;2.42;;;18.20;99.90;;;;;;4146191;28;20554;-85
2022/06/25 02:45:22;;;;;;;5.05;2.40;;;18.20;99.90;;;;;;4130415;28;20212;-85
2022/06/25 02:47:24;;;;;;;5.63;2.05;;;18.20;99.90;;;;;;4129866;28;20170;-85
2022/06/25 02:49:41;;;;;;;7.90;2.10;;;18.20;99.90;;;;;;4131999;28;20194;-86
2022/06/25 02:51:42;;;;;;;3.47;1.60;;;18.20;99.90;;;;;;4129596;28;20633;-86
2022/06/25 02:53:43;;;;;;;4.95;1.50;;;18.30;99.90;;;;;;4146279;28;20179;-84
2022/06/25 03:00:24;;;;;;;4.22;1.40;;;18.50;99.90;;;;;;4146302;28;20291;-85
2022/06/25 03:02:25;;;;;;;3.83;1.20;;;18.40;99.90;;;;;;4146067;28;20177;-85
2022/06/25 03:04:26;;;;;;;6.05;1.27;;;18.40;99.90;;;;;;4146112;28;20177;-84
2022/06/25 03:06:29;;;;;;;4.55;1.10;;;18.40;99.90;;;;;;4146041;28;20176;-85
2022/06/25 03:08:30;;;;;;;7.57;1.00;;;18.50;99.90;;;;;;4146020;28;20311;-85
2022/06/25 03:10:30;;;;;;;1.80;0.80;;;18.50;99.90;;;;;;4129987;28;20711;-85
2022/06/25 03:12:32;;;;;;;2.38;0.75;;;18.60;99.90;;;;;;4129922;28;20189;-85
2022/06/25 03:14:46;;;;;;;5.38;0.80;;;18.60;99.90;;;;;;4145859;28;20173;-85
2022/06/25 03:16:47;;;;;;;2.65;0.70;;;18.60;99.90;;;;;;4145863;28;20290;-86
2022/06/25 03:18:50;;;;;;;6.35;0.90;;;18.70;99.90;;;;;;4130847;28;20249;-85
2022/06/25 03:20:54;;;;;;;2.63;0.60;;;18.80;99.90;;;;;;4149126;28;20172;-86
2022/06/25 03:22:55;;;;;;;3.03;1.00;;;18.80;99.90;;;;;;4132835;28;20609;-86
2022/06/25 03:24:56;;;;;;;2.78;0.70;;;18.70;99.90;;;;;;4149064;28;20565;-85
2022/06/25 03:26:58;;;;;;;4.00;0.80;;;18.70;99.90;;;;;;4148834;28;20169;-85
2022/06/25 03:28:59;;;;;;;2.55;0.80;;;18.70;99.90;;;;;;4149215;28;20197;-85
2022/06/25 03:31:01;;;;;;;4.07;0.95;;;18.70;99.90;;;;;;4148699;28;20177;-85
2022/06/25 03:33:02;;;;;;;2.75;0.75;;;18.70;99.90;;;;;;4132898;28;20176;-86
2022/06/25 03:35:12;;;;;;;2.85;0.70;;;18.80;99.90;;;;;;4133605;28;20212;-85
2022/06/25 03:37:26;;;;;;;5.45;0.95;;;18.70;99.90;;;;;;4148890;28;20735;-84
2022/06/25 03:39:27;;;;;;;4.43;0.80;;;18.80;99.90;;;;;;4132592;28;20239;-85
2022/06/25 03:41:37;;;;;;;5.72;1.10;;;18.90;99.90;;;;;;4132546;28;20664;-85
2022/06/25 03:44:09;;;;;;;4.28;1.10;;;19.00;99.90;;;;;;4148665;28;20747;-85
2022/06/25 03:46:09;;;;;;;5.68;0.98;;;19.00;99.90;;;;;;4148491;28;20176;-85
2022/06/25 03:48:10;;;;;;;4.03;1.10;;;19.10;99.90;;;;;;4132915;28;20256;-85
2022/06/25 03:50:39;;;;;;;4.65;1.20;;;19.00;99.90;;;;;;4152581;28;20196;-85
2022/06/25 03:52:41;;;;;;;4.80;0.90;;;19.10;99.90;;;;;;4132418;28;20352;-90
2022/06/25 03:54:42;;;;;;;2.63;0.90;;;19.00;99.90;;;;;;4148721;28;20189;-85
2022/06/25 03:56:44;;;;;;;1.55;0.73;;;19.00;99.90;;;;;;4132193;28;20270;-84
2022/06/25 03:58:46;;;;;;;3.03;1.05;;;18.90;99.90;;;;;;4148384;28;20176;-85
2022/06/25 04:00:47;;;;;;;2.45;0.77;;;18.90;99.90;;;;;;4132214;28;20196;-85
2022/06/25 04:02:47;;;;;;;3.00;0.90;;;18.80;99.90;;;;;;4148498;28;20200;-84
2022/06/25 04:05:04;;;;;;;4.15;1.13;;;18.80;99.90;;;;;;4166111;28;20176;-85
2022/06/25 04:07:06;;;;;;;3.47;0.90;;;18.80;99.90;;;;;;4132041;28;20221;-85
2022/06/25 04:09:07;;;;;;;8.57;1.00;;;18.70;99.90;;;;;;4131737;28;20201;-84
2022/06/25 04:11:08;;;;;;;8.38;1.00;;;18.90;99.90;;;;;;4132296;28;20199;-84
2022/06/25 04:13:15;;;;;;;2.33;0.70;;;18.90;99.90;;;;;;4132766;28;20180;-85
2022/06/25 04:15:16;;;;;;;4.30;1.20;;;18.90;99.90;;;;;;4148072;28;20235;-85
2022/06/25 04:17:18;;;;;;;3.90;0.90;;;18.90;99.90;;;;;;4131494;28;20210;-85
2022/06/25 04:19:19;;;;;;;2.25;0.70;;;18.80;99.90;;;;;;4147682;28;20255;-85
2022/06/25 04:21:19;;;;;;;4.50;1.00;;;18.70;99.90;;;;;;4148035;28;20176;-85
2022/06/25 04:23:20;;;;;;;3.53;1.25;;;18.70;99.90;;;;;;4131643;28;20183;-85
2022/06/25 04:25:21;;;;;;;2.70;1.10;;;18.80;99.90;;;;;;4131751;28;20197;-85
2022/06/25 04:29:42;;;;;;;2.65;1.17;;;18.70;99.90;;;;;;4147597;28;20310;-85
2022/06/25 04:31:48;;;;;;;6.18;1.40;;;18.80;99.90;;;;;;4131620;28;20272;-85
2022/06/25 04:34:05;;;;;;;7.15;1.50;;;18.80;99.90;;;;;;4133479;28;20688;-85
2022/06/25 04:36:06;;;;;;;4.80;1.35;;;18.90;99.90;;;;;;4131749;28;20216;-84
2022/06/25 04:38:19;;;;;;;4.60;1.92;;;19.10;99.90;;;;;;4133257;28;20220;-85
2022/06/25 04:40:20;;;;;;;6.13;1.90;;;19.30;99.90;;;;;;4131430;28;20605;-86
2022/06/25 04:42:24;;;;;;;7.35;2.00;;;19.30;99.90;;;;;;4131933;28;20176;-85
2022/06/25 04:44:25;;;;;;;6.65;1.77;;;19.40;99.90;;;;;;4131382;28;20169;-85
2022/06/25 04:46:31;;;;;;;6.78;2.13;;;19.40;99.90;;;;;;4147570;28;20180;-85
2022/06/25 04:48:33;;;;;;;6.00;2.55;;;19.30;99.90;;;;;;4147816;28;20169;-85
2022/06/25 04:50:49;;;;;;;5.72;2.67;;;19.50;99.90;;;;;;4133474;28;20272;-85
2022/06/25 04:52:49;;;;;;;8.85;3.00;;;19.60;99.90;;;;;;4147590;28;20165;-85
2022/06/25 04:54:50;;;;;;;7.20;2.95;;;19.50;99.90;;;;;;4147537;28;20212;-86
2022/06/25 04:56:53;;;;;;;8.65;2.50;;;19.40;99.90;;;;;;4147371;28;20681;-85
2022/06/25 04:58:55;;;;;;;7.03;3.00;;;19.50;99.90;;;;;;4147539;28;20760;-86
2022/06/25 05:01:20;;;;;;;8.55;2.92;;;19.50;99.90;;;;;;4123038;28;20544;-85
2022/06/25 05:03:21;;;;;;;7.97;3.00;;;19.40;99.90;;;;;;4130822;28;20212;-85
2022/06/25 05:05:41;;;;;;;6.50;2.95;;;19.50;99.90;;;;;;4147428;28;20173;-85
2022/06/25 05:07:45;;;;;;;7.75;3.00;;;19.60;99.90;;;;;;4147341;28;20177;-86
2022/06/25 05:09:46;;;;;;;9.50;3.35;;;19.60;99.90;;;;;;4147224;28;20669;-85
2022/06/25 05:11:51;;;;;;;6.75;3.00;;;19.50;99.90;;;;;;4147285;28;20655;-85
2022/06/25 05:13:51;;;;;;;6.78;2.70;;;19.50;99.90;;;;;;4147198;28;20173;-85
2022/06/25 05:15:52;;;;;;;7.20;2.53;;;19.40;99.90;;;;;;4147251;28;20657;-85
2022/06/25 05:17:54;;;;;;;7.95;2.60;;;19.50;99.90;;;;;;4131420;28;21240;-86
2022/06/25 05:19:56;;;;;;;11.85;3.05;;;19.60;99.90;;;;;;4130681;28;20283;-85
2022/06/25 05:21:57;;;;;;;4.63;2.38;;;19.60;99.90;;;;;;4130941;28;20178;-85
2022/06/25 05:23:59;;;;;;;7.18;2.70;;;19.70;99.90;;;;;;4147145;28;20188;-85
2022/06/25 05:26:00;;;;;;;6.22;2.53;;;19.60;99.90;;;;;;4130725;28;20654;-85
2022/06/25 05:28:02;;;;;;;9.75;2.50;;;19.70;99.90;;;;;;4147294;28;20180;-85
2022/06/25 05:30:05;;;;;;;7.63;2.92;;;19.60;99.90;;;;;;4147380;28;20200;-85
2022/06/25 05:32:06;;;;;;;7.53;2.70;;;19.60;99.90;;;;;;4146733;28;20177;-86
2022/06/25 05:34:07;;;;;;;6.57;2.38;;;19.50;99.90;;;;;;4130869;28;20178;-85
2022/06/25 05:36:08;;;;;;;5.97;2.55;;;19.50;99.90;;;;;;4146831;28;20255;-85
2022/06/25 05:38:10;;;;;;;7.15;2.28;;;19.40;99.90;;;;;;4163503;28;20211;-86
2022/06/25 05:40:12;;;;;;;4.25;1.95;;;19.50;99.90;;;;;;4130924;28;20557;-85
2022/06/25 05:42:12;;;;;;;9.25;2.25;;;19.50;99.90;;;;;;4130789;28;20177;-85
2022/06/25 05:44:13;;;;;;;6.25;2.20;;;19.50;99.90;;;;;;4146747;28;20177;-86
2022/06/25 05:46:14;;;;;;;5.90;1.92;;;19.50;99.90;;;;;;4146708;28;20239;-85
2022/06/25 05:48:14;;;;;;;7.70;1.80;;;19.50;99.90;;;;;;4164211;28;20180;-85
2022/06/25 05:50:15;;;;;;;5.65;2.20;;;19.50;99.90;;;;;;4130095;28;20240;-85
2022/06/25 05:52:16;;;;;;;4.97;2.00;;;19.40;99.90;;;;;;4146457;28;20199;-86
2022/06/25 05:54:17;;;;;;;4.75;1.75;;;19.40;99.90;;;;;;4146804;28;20675;-85
2022/06/25 05:56:17;;;;;;;7.25;1.73;;;19.40;99.90;;;;;;4146802;28;20176;-84
2022/06/25 05:58:19;;;;;;;4.25;1.50;;;19.50;99.90;;;;;;4146699;28;20684;-85
2022/06/25 06:00:20;;;;;;;4.90;1.45;;;19.50;99.90;;;;;;4130586;28;20189;-86
2022/06/25 06:02:20;;;;;;;4.15;1.60;;;19.50;99.90;;;;;;4130484;28;20188;-85
2022/06/25 06:04:21;;;;;;;3.95;1.40;;;19.60;99.90;;;;;;4130441;28;20217;-86
2022/06/25 06:06:22;;;;;;;7.05;2.03;;;19.80;99.90;;;;;;4146813;28;20177;-85
2022/06/25 06:08:23;;;;;;;4.00;1.75;;;20.00;99.90;;;;;;4130803;28;20173;-85
2022/06/25 06:10:23;;;;;;;7.68;2.10;;;20.20;99.90;;;;;;4146556;28;20197;-86
2022/06/25 06:12:24;;;;;;;5.53;1.80;;;20.40;99.90;;;;;;4163219;28;20183;-85
2022/06/25 06:14:25;;;;;;;6.32;2.22;;;20.90;99.90;;;;;;4130786;28;20178;-85
2022/06/25 06:16:26;;;;;;;4.22;1.85;;;21.10;99.90;;;;;;4146482;28;20208;-85
2022/06/25 06:18:27;;;;;;;6.65;2.40;;;21.60;99.90;;;;;;4163835;28;20526;-86
2022/06/25 06:20:27;;;;;;;5.68;2.05;;;21.90;99.90;;;;;;4130528;28;20173;-85
2022/06/25 06:22:28;;;;;;;5.20;1.45;;;22.20;99.90;;;;;;4147165;28;20183;-86
2022/06/25 06:24:29;;;;;;;4.05;1.50;;;22.30;99.90;;;;;;4146665;28;20203;-85
2022/06/25 06:26:30;;;;;;;6.35;1.45;;;22.40;99.90;;;;;;4130314;28;20177;-86
2022/06/25 06:28:30;;;;;;;4.55;1.40;;;22.50;99.90;;;;;;4146880;28;20169;-86
2022/06/25 06:30:31;;;;;;;4.63;1.70;;;22.20;99.90;;;;;;4146696;28;20173;-85
2022/06/25 06:32:32;;;;;;;6.55;1.45;;;22.10;99.90;;;;;;4146564;28;20244;-84
2022/06/25 06:34:32;;;;;;;5.88;1.80;;;22.00;99.90;;;;;;4130511;28;20646;-85
2022/06/25 06:36:33;;;;;;;6.85;1.40;;;22.00;99.90;;;;;;4146561;28;20165;-85
2022/06/25 06:38:34;;;;;;;5.47;1.67;;;21.90;99.90;;;;;;4129883;28;20208;-85
2022/06/25 06:40:34;;;;;;;5.10;1.17;;;22.00;99.90;;;;;;4129641;28;20531;-85
2022/06/25 06:42:36;;;;;;;2.60;1.33;;;22.30;99.90;;;;;;4162750;28;20711;-85
2022/06/25 06:44:36;;;;;;;5.30;1.20;;;22.30;99.90;;;;;;4147450;28;20188;-84
2022/06/25 06:46:37;;;;;;;9.40;1.50;;;22.40;99.90;;;;;;4130427;28;20170;-85
2022/06/25 06:48:38;;;;;;;2.60;1.17;;;22.20;99.90;;;;;;4146133;28;20177;-85
2022/06/25 06:50:39;;;;;;;5.43;1.58;;;22.10;99.90;;;;;;4130495;28;20177;-85
2022/06/25 06:52:40;;;;;;;8.18;1.55;;;21.80;99.90;;;;;;4146191;28;20264;-86
2022/06/25 06:54:40;;;;;;;5.38;1.42;;;21.80;99.90;;;;;;4132832;28;20168;-86
2022/06/25 06:56:41;;;;;;;5.55;1.35;;;21.90;99.90;;;;;;4149276;28;20276;-85
2022/06/25 06:58:42;;;;;;;3.13;1.30;;;22.00;99.90;;;;;;4150059;28;20259;-85
2022/06/25 07:00:43;;;;;;;4.78;1.23;;;22.10;99.90;;;;;;4150295;28;20184;-86
2022/06/25 07:02:43;;;;;;;7.32;1.45;;;22.00;99.90;;;;;;4149300;28;20193;-85
2022/06/25 07:04:44;;;;;;;4.85;1.63;;;22.10;99.90;;;;;;4149503;28;20168;-94
2022/06/25 07:06:45;;;;;;;4.45;1.00;;;22.50;99.90;;;;;;4133775;28;20261;-84
2022/06/25 07:08:45;;;;;;;5.45;1.20;;;22.60;99.90;;;;;;4149733;28;20168;-85
2022/06/25 07:10:46;;;;;;;4.70;1.02;;;22.50;99.90;;;;;;4132727;28;20173;-86
2022/06/25 07:12:47;;;;;;;8.63;1.20;;;22.50;99.90;;;;;;4149684;28;20209;-85
2022/06/25 07:14:48;;;;;;;11.20;1.05;;;22.60;99.90;;;;;;4133014;28;20508;-85
2022/06/25 07:16:49;;;;;;;5.35;1.10;;;22.50;99.90;;;;;;4166620;28;20222;-85
2022/06/25 07:18:50;;;;;;;5.18;1.00;;;22.50;99.90;;;;;;4149370;28;20204;-85
2022/06/25 07:20:51;;;;;;;3.92;0.90;;;22.30;99.90;;;;;;4149384;28;20255;-85
2022/06/25 07:22:52;;;;;;;6.88;1.02;;;22.30;99.90;;;;;;4132787;28;20426;-85
2022/06/25 07:24:53;;;;;;;2.83;1.10;;;22.20;99.90;;;;;;4133015;28;20172;-84
2022/06/25 07:26:54;;;;;;;3.13;1.02;;;22.20;99.90;;;;;;4149081;28;20200;-86
2022/06/25 07:28:55;;;;;;;10.20;1.20;;;22.10;99.90;;;;;;4132838;28;20194;-86
2022/06/25 07:30:56;;;;;;;4.38;1.00;;;22.10;99.90;;;;;;4149401;28;20259;-90
2022/06/25 07:32:57;;;;;;;3.05;1.00;;;22.10;99.90;;;;;;4149054;28;20200;-86
2022/06/25 07:34:57;;;;;;;8.38;0.93;;;22.40;99.90;;;;;;4133018;28;20197;-87
2022/06/25 07:36:58;;;;;;;6.35;1.00;;;22.80;99.90;;;;;;4165555;28;20234;-86
2022/06/25 07:39:00;;;;;;;4.60;0.95;;;23.20;99.90;;;;;;4132693;28;20778;-85
2022/06/25 07:41:02;;;;;;;4.28;1.00;;;23.40;99.90;;;;;;4133235;28;20173;-86
2022/06/25 07:43:03;;;;;;;4.05;1.10;;;23.60;99.90;;;;;;4132815;28;20169;-85
2022/06/25 07:45:04;;;;;;;5.00;0.90;;;23.60;99.90;;;;;;4166480;28;20175;-86
2022/06/25 07:47:04;;;;;;;4.00;0.85;;;23.70;99.90;;;;;;4148565;28;20195;-85
2022/06/25 07:49:07;;;;;;;3.20;1.00;;;23.70;99.90;;;;;;4131845;28;20194;-87
2022/06/25 07:53:27;;;;;;;4.07;1.00;;;23.40;99.90;;;;;;4148633;28;20168;-86
2022/06/25 07:55:28;;;;;;;4.93;1.00;;;22.80;99.90;;;;;;4132348;28;20192;-85
2022/06/25 07:57:29;;;;;;;5.25;1.00;;;22.40;99.90;;;;;;4132749;28;20244;-84
2022/06/25 07:59:30;;;;;;;3.22;0.90;;;21.90;99.90;;;;;;4148405;28;20189;-85
2022/06/25 08:01:30;;;;;;;2.63;0.93;;;21.20;99.90;;;;;;4148968;28;20173;-85
2022/06/25 08:03:31;;;;;;;6.93;1.00;;;21.10;99.90;;;;;;4148645;28;20168;-87
2022/06/25 08:05:33;;;;;;;6.07;1.17;;;20.70;99.90;;;;;;4147691;28;20220;-89
2022/06/25 08:07:34;;;;;;;3.90;0.93;;;20.30;99.90;;;;;;4148747;28;20173;-86
2022/06/25 08:09:35;;;;;;;6.10;1.00;;;20.10;99.90;;;;;;4166070;28;20282;-88
2022/06/25 08:11:37;;;;;;;8.40;0.88;;;20.30;99.90;;;;;;4132383;28;20185;-86
2022/06/25 08:13:38;;;;;;;4.45;0.80;;;20.40;99.90;;;;;;4132797;28;20638;-86
2022/06/25 08:15:38;;;;;;;4.97;1.02;;;20.80;99.90;;;;;;4148357;28;20177;-86
2022/06/25 08:17:39;;;;;;;4.85;0.63;;;21.30;99.90;;;;;;4132432;28;20245;-86
2022/06/25 08:19:40;;;;;;;3.45;0.70;;;21.60;99.90;;;;;;4148554;28;20201;-86
2022/06/25 08:21:41;;;;;;;3.72;1.00;;;21.70;99.90;;;;;;4132315;28;20181;-87
2022/06/25 08:23:41;;;;;;;6.20;0.90;;;21.60;99.90;;;;;;4148579;28;20597;-86
2022/06/25 08:25:42;;;;;;;3.90;1.00;;;21.60;99.90;;;;;;4148659;28;20199;-86
2022/06/25 08:27:51;;;;;;;4.53;0.90;;;21.70;99.90;;;;;;4132080;28;20173;-86
2022/06/25 08:29:52;;;;;;;6.05;0.85;;;21.90;99.90;;;;;;4132151;28;20307;-88
2022/06/25 08:31:53;;;;;;;4.93;0.90;;;22.40;99.90;;;;;;4132055;28;20162;-87
2022/06/25 08:33:54;;;;;;;5.43;1.00;;;22.80;99.90;;;;;;4132231;28;20181;-90
2022/06/25 08:35:55;;;;;;;6.10;1.13;;;23.10;99.90;;;;;;4131592;28;20161;-86
2022/06/25 08:37:56;;;;;;;4.07;0.88;;;23.10;99.90;;;;;;4147857;28;20212;-87
2022/06/25 08:39:56;;;;;;;2.35;1.00;;;23.00;99.90;;;;;;4147816;28;20276;-86
2022/06/25 08:42:00;;;;;;;3.22;0.90;;;22.70;99.90;;;;;;4147042;28;20685;-86
2022/06/25 08:44:00;;;;;;;3.40;1.05;;;22.80;99.90;;;;;;4132040;28;20200;-86
2022/06/25 08:46:02;;;;;;;4.85;1.00;;;23.10;99.90;;;;;;4148243;28;20169;-86
2022/06/25 08:48:14;;;;;;;4.07;1.00;;;23.60;99.90;;;;;;4147953;28;20181;-85
2022/06/25 08:50:16;;;;;;;3.40;1.27;;;23.70;99.90;;;;;;4147673;28;20192;-87
2022/06/25 08:52:18;;;;;;;2.55;1.10;;;23.70;99.90;;;;;;4132067;28;20186;-87
2022/06/25 08:54:20;;;;;;;4.70;1.20;;;23.90;99.90;;;;;;4148125;28;20177;-86
2022/06/25 08:56:21;;;;;;;6.07;1.10;;;24.10;99.90;;;;;;4131496;28;20173;-86
2022/06/25 08:58:22;;;;;;;5.75;1.58;;;24.30;99.90;;;;;;4147573;28;20209;-86
2022/06/25 09:00:23;;;;;;;2.05;1.00;;;25.00;99.90;;;;;;4146936;28;20271;-87
2022/06/25 09:02:24;;;;;;;3.25;1.23;;;25.90;99.90;;;;;;4165575;28;20169;-87
2022/06/25 09:04:25;;;;;;;6.40;1.20;;;27.00;99.90;;;;;;4131180;28;20185;-87
2022/06/25 09:06:26;;;;;;;2.88;1.20;;;27.40;99.90;;;;;;4131178;28;20173;-86
2022/06/25 09:08:26;;;;;;;3.05;1.00;;;28.10;99.90;;;;;;4147553;28;20184;-86
2022/06/25 09:10:28;;;;;;;3.58;0.90;;;28.80;99.90;;;;;;4147374;28;20279;-86
2022/06/25 09:12:29;;;;;;;2.22;1.00;;;28.80;99.90;;;;;;4131497;28;20216;-87
2022/06/25 09:14:30;;;;;;;4.68;1.30;;;28.40;99.90;;;;;;4131328;28;20593;-88
2022/06/25 09:16:31;;;;;;;6.15;1.05;;;27.90;99.90;;;;;;4130883;28;20558;-87
2022/06/25 09:18:34;;;;;;;4.43;1.05;;;26.90;99.90;;;;;;4147445;28;20193;-87
2022/06/25 09:20:36;;;;;;;3.92;1.02;;;26.30;99.90;;;;;;4131645;28;20638;-86
2022/06/25 09:22:36;;;;;;;1.83;0.93;;;26.10;99.90;;;;;;4131202;28;20216;-88
2022/06/25 09:24:48;;;;;;;2.65;1.00;;;26.10;99.90;;;;;;4131643;28;20305;-87
2022/06/25 09:26:51;;;;;;;9.23;1.20;;;25.90;99.90;;;;;;4131550;28;20173;-87
2022/06/25 09:28:52;;;;;;;3.08;0.90;;;26.10;99.90;;;;;;4130876;28;20738;-87
2022/06/25 09:30:53;;;;;;;4.18;1.25;;;26.50;99.90;;;;;;4131356;28;20169;-87
2022/06/25 09:32:59;;;;;;;4.35;1.00;;;27.40;99.90;;;;;;4131590;28;20542;-86
2022/06/25 09:35:00;;;;;;;4.43;0.95;;;28.60;99.90;;;;;;4130776;28;20181;-87
2022/06/25 09:37:19;;;;;;;3.17;0.93;;;29.40;99.90;;;;;;4130916;28;20239;-87
2022/06/25 09:39:20;;;;;;;4.88;1.20;;;30.10;99.90;;;;;;4131648;28;20200;-93
2022/06/25 09:41:23;;;;;;;7.20;0.95;;;30.70;99.90;;;;;;4147841;28;20172;-90
2022/06/25 09:43:34;;;;;;;3.15;0.90;;;31.20;99.90;;;;;;4131787;28;20197;-91
2022/06/25 09:45:36;;;;;;;3.97;0.85;;;31.70;99.90;;;;;;4131994;28;20176;-91
2022/06/25 09:47:43;;;;;;;4.70;1.10;;;31.90;99.90;;;;;;4133261;28;20180;-94
2022/06/25 09:49:44;;;;;;;2.45;1.10;;;31.80;99.90;;;;;;4134511;28;20209;-92
2022/06/25 09:51:44;;;;;;;5.30;1.25;;;31.20;99.90;;;;;;4133649;28;20674;-91
2022/06/25 09:53:52;;;;;;;2.28;1.10;;;30.80;99.90;;;;;;4149369;28;20196;-90
2022/06/25 09:55:52;;;;;;;2.90;0.90;;;30.40;99.90;;;;;;4132079;28;20558;-94
2022/06/25 09:57:54;;;;;;;5.10;1.02;;;29.50;99.90;;;;;;4133580;28;20216;-93
2022/06/25 09:59:58;;;;;;;2.95;0.90;;;29.10;99.90;;;;;;4134048;28;20248;-93
2022/06/25 10:02:00;;;;;;;5.78;1.00;;;29.00;99.90;;;;;;4151460;28;20183;-90
2022/06/25 10:04:03;;;;;;;2.80;1.10;;;28.30;99.90;;;;;;4134124;28;20174;-91
2022/06/25 10:06:05;;;;;;;6.78;1.05;;;27.90;99.90;;;;;;4166278;28;20180;-90
2022/06/25 10:08:11;;;;;;;6.32;1.02;;;28.60;99.90;;;;;;4133444;28;20204;-91
2022/06/25 10:10:22;;;;;;;1.65;0.95;;;28.90;99.90;;;;;;4134358;28;20744;-92
2022/06/25 10:12:23;;;;;;;3.08;0.98;;;28.50;99.90;;;;;;4132941;28;20535;-91
2022/06/25 10:14:25;;;;;;;3.40;1.10;;;28.30;99.90;;;;;;4147500;28;20187;-90
2022/06/25 10:16:27;;;;;;;6.60;1.20;;;28.60;99.90;;;;;;4133124;28;20157;-90
2022/06/25 10:18:29;;;;;;;6.13;1.10;;;29.30;99.90;;;;;;4147598;28;20596;-90
2022/06/25 10:20:31;;;;;;;3.65;1.00;;;29.40;99.90;;;;;;4134186;28;20201;-91
2022/06/25 10:22:33;;;;;;;2.67;1.17;;;29.20;99.90;;;;;;4131402;28;20182;-95
2022/06/25 10:24:34;;;;;;;2.92;1.10;;;29.20;99.90;;;;;;4132113;28;20186;-91
2022/06/25 10:26:36;;;;;;;6.43;1.27;;;29.00;99.90;;;;;;4133006;28;20197;-91
2022/06/25 10:28:36;;;;;;;5.80;1.17;;;28.70;99.90;;;;;;4131547;28;20681;-93
2022/06/25 10:30:47;;;;;;;4.88;1.20;;;28.30;99.90;;;;;;4150131;28;20149;-92
2022/06/25 10:32:49;;;;;;;3.40;1.30;;;27.80;99.90;;;;;;4134340;28;20768;-90
2022/06/25 10:35:01;;;;;;;2.92;1.27;;;27.30;99.90;;;;;;4150284;28;20177;-89
2022/06/25 10:37:02;;;;;;;3.70;1.38;;;27.90;99.90;;;;;;4132902;28;20220;-90
2022/06/25 10:39:23;;;;;;;4.95;1.50;;;27.80;99.90;;;;;;4132984;28;20234;-93
2022/06/25 10:43:51;;;;;;;2.50;1.10;;;27.50;99.90;;;;;;4151601;28;20184;-90
2022/06/25 10:45:51;;;;;;;4.28;1.10;;;27.50;99.90;;;;;;4133090;28;20172;-91
2022/06/25 10:47:53;;;;;;;3.67;1.40;;;28.00;99.90;;;;;;4131373;28;20178;-91
2022/06/25 10:50:20;;;;;;;3.80;1.42;;;28.20;99.90;;;;;;4148100;28;20204;-90
2022/06/25 10:52:21;;;;;;;2.15;1.00;;;28.00;99.90;;;;;;4131057;28;20239;-90